Time;durP1;ratioP1;P1;durP2;ratioP2;P2;SDS_P1;SDS_P2;PMS_P1;PMS_P2;Temp;Humidity;BMP_temperature;BMP_pressure;BME280_temperature;BME280_humidity;BME280_pressure;Samples;Min_cycle;Max_cycle;Signal;HPM_P1;HPM_P2
2023/03/02 00:00:01;;;;;;;;;;;4.50;99.40;5.10;99485.00;;;;344286;28;88041;-92
2023/03/02 00:00:15;;;;;;;;;;;4.50;99.40;5.10;99482.00;;;;343419;28;83440;-91
2023/03/02 00:00:27;;;;;;;;;;;4.50;99.40;5.10;99479.00;;;;342688;28;89532;-92
2023/03/02 00:00:39;;;;;;;;;;;4.50;99.50;5.00;99483.00;;;;343506;28;83313;-92
2023/03/02 00:00:55;;;;;;;;;;;4.50;99.50;5.00;99484.00;;;;342961;28;88278;-92
2023/03/02 00:01:08;;;;;;;;;;;4.50;99.50;5.10;99473.00;;;;340703;28;83267;-92
2023/03/02 00:01:20;;;;;;;;;;;4.50;99.50;5.10;99490.00;;;;344191;28;89736;-91
2023/03/02 00:01:43;;;;;;;;;;;4.50;99.50;5.00;99486.00;;;;344630;28;83358;-91
2023/03/02 00:02:00;;;;;;;;;;;4.50;99.50;5.10;99489.00;;;;344352;28;88972;-92
2023/03/02 00:02:16;;;;;;;;;;;4.50;99.40;5.00;99477.00;;;;343133;28;83633;-92
2023/03/02 00:02:28;;;;;;;;;;;4.50;99.50;4.90;99477.00;;;;344051;28;89562;-92
2023/03/02 00:02:40;;;;;;;;;;;4.40;99.40;4.90;99471.00;;;;344519;28;83524;-92
2023/03/02 00:02:51;;;;;;;;;;;4.50;99.40;5.00;99475.00;;;;343001;28;89721;-92
2023/03/02 00:03:04;;;;;;;;;;;4.40;99.40;4.90;99479.00;;;;343437;28;83301;-92
2023/03/02 00:03:19;;;;;;;;;;;4.40;99.40;4.90;99478.00;;;;341440;28;89558;-93
2023/03/02 00:03:32;;;;;;;;;;;4.40;99.50;4.90;99488.00;;;;341890;28;83445;-92
2023/03/02 00:03:44;;;;;;;;;;;4.40;99.50;4.90;99483.00;;;;344049;28;88417;-92
2023/03/02 00:03:57;;;;;;;;;;;4.40;99.50;4.80;99479.00;;;;345898;28;82576;-92
2023/03/02 00:04:24;;;;;;;;;;;4.40;99.50;4.90;99473.00;;;;342648;28;91744;-91
2023/03/02 00:04:39;;;;;;;;;;;4.40;99.50;5.00;99486.00;;;;342100;28;82425;-92
2023/03/02 00:04:52;;;;;;;;;;;4.40;99.50;5.00;99480.00;;;;343037;28;88705;-92
2023/03/02 00:05:05;;;;;;;;;;;4.40;99.50;5.00;99485.00;;;;343421;28;83419;-92
2023/03/02 00:05:17;;;;;;;;;;;4.40;99.50;5.00;99481.00;;;;342735;28;88547;-92
2023/03/02 00:05:29;;;;;;;;;;;4.40;99.60;5.00;99475.00;;;;344836;28;82392;-92
2023/03/02 00:05:41;;;;;;;;;;;4.40;99.60;4.90;99474.00;;;;345711;28;89726;-92
2023/03/02 00:05:53;;;;;;;;;;;4.40;99.60;5.00;99471.00;;;;344832;28;82179;-91
2023/03/02 00:06:05;;;;;;;;;;;4.40;99.60;5.00;99470.00;;;;344109;28;90883;-90
2023/03/02 00:06:16;;;;;;;;;;;4.40;99.60;5.00;99476.00;;;;343395;28;82237;-92
2023/03/02 00:06:28;;;;;;;;;;;4.40;99.60;5.10;99475.00;;;;342939;28;90432;-91
2023/03/02 00:06:41;;;;;;;;;;;4.40;99.60;5.10;99480.00;;;;344553;28;83493;-92
2023/03/02 00:06:54;;;;;;;;;;;4.40;99.70;5.10;99482.00;;;;343886;28;86949;-92
2023/03/02 00:07:08;;;;;;;;;;;4.40;99.60;5.10;99481.00;;;;346037;28;83289;-92
2023/03/02 00:07:27;;;;;;;;;;;4.40;99.60;5.10;99477.00;;;;345778;28;88446;-92
2023/03/02 00:07:39;;;;;;;;;;;4.40;99.60;5.10;99478.00;;;;343250;28;83509;-93
2023/03/02 00:07:53;;;;;;;;;;;4.40;99.60;5.20;99475.00;;;;342980;28;89481;-92
2023/03/02 00:08:06;;;;;;;;;;;4.50;99.60;5.20;99485.00;;;;343413;28;83391;-92
2023/03/02 00:08:18;;;;;;;;;;;4.50;99.60;5.10;99478.00;;;;342844;28;89523;-92
2023/03/02 00:08:30;;;;;;;;;;;4.50;99.50;5.10;99474.00;;;;345945;28;83377;-93
2023/03/02 00:08:42;;;;;;;;;;;4.50;99.50;5.10;99481.00;;;;344279;28;89185;-92
2023/03/02 00:08:54;;;;;;;;;;;4.50;99.50;5.10;99481.00;;;;343340;28;83495;-92
2023/03/02 00:09:06;;;;;;;;;;;4.50;99.60;5.10;99472.00;;;;342779;28;86973;-92
2023/03/02 00:09:18;;;;;;;;;;;4.50;99.50;5.20;99476.00;;;;343432;28;82305;-93
2023/03/02 00:09:30;;;;;;;;;;;4.50;99.50;5.10;99475.00;;;;344161;28;88791;-92
2023/03/02 00:09:43;;;;;;;;;;;4.50;99.50;5.20;99481.00;;;;344383;28;82580;-92
2023/03/02 00:09:55;;;;;;;;;;;4.50;99.50;5.10;99474.00;;;;344355;28;89275;-92
2023/03/02 00:10:07;;;;;;;;;;;4.50;99.50;5.00;99476.00;;;;342919;28;82632;-91
2023/03/02 00:10:19;;;;;;;;;;;4.50;99.50;4.90;99477.00;;;;342822;28;89276;-91
2023/03/02 00:10:31;;;;;;;;;;;4.50;99.50;5.00;99488.00;;;;347244;28;83389;-91
2023/03/02 00:10:43;;;;;;;;;;;4.50;99.40;5.00;99479.00;;;;344258;28;88817;-91
2023/03/02 00:10:55;;;;;;;;;;;4.50;99.50;5.10;99483.00;;;;343436;28;83328;-92
2023/03/02 00:11:07;;;;;;;;;;;4.50;99.50;5.10;99489.00;;;;342481;28;88579;-92
2023/03/02 00:11:20;;;;;;;;;;;4.50;99.50;5.10;99472.00;;;;342020;28;83322;-92
2023/03/02 00:11:33;;;;;;;;;;;4.50;99.50;5.00;99483.00;;;;342551;28;89269;-92
2023/03/02 00:11:44;;;;;;;;;;;4.50;99.50;5.00;99488.00;;;;343252;28;83531;-92
2023/03/02 00:11:56;;;;;;;;;;;4.50;99.50;4.90;99478.00;;;;343028;28;88107;-92
2023/03/02 00:12:08;;;;;;;;;;;4.50;99.50;5.00;99479.00;;;;344466;28;83647;-92
2023/03/02 00:12:20;;;;;;;;;;;4.40;99.40;5.10;99481.00;;;;344172;28;89388;-93
2023/03/02 00:12:32;;;;;;;;;;;4.40;99.50;5.00;99472.00;;;;344808;28;83286;-92
2023/03/02 00:12:44;;;;;;;;;;;4.50;99.50;5.10;99468.00;;;;344258;28;90356;-92
2023/03/02 00:12:56;;;;;;;;;;;4.50;99.60;5.00;99482.00;;;;343182;28;83528;-92
2023/03/02 00:13:08;;;;;;;;;;;4.50;99.50;5.00;99480.00;;;;340341;28;88161;-92
2023/03/02 00:13:20;;;;;;;;;;;4.40;99.50;4.90;99473.00;;;;343145;28;83444;-91
2023/03/02 00:13:32;;;;;;;;;;;4.40;99.40;4.90;99475.00;;;;344072;28;88273;-92
2023/03/02 00:13:44;;;;;;;;;;;4.50;99.50;4.90;99478.00;;;;342958;28;83615;-92
2023/03/02 00:13:56;;;;;;;;;;;4.40;99.50;4.90;99483.00;;;;342755;28;90930;-93
2023/03/02 00:14:08;;;;;;;;;;;4.40;99.50;5.00;99477.00;;;;343362;28;82441;-92
2023/03/02 00:14:20;;;;;;;;;;;4.40;99.50;5.00;99483.00;;;;341719;28;87888;-92
2023/03/02 00:14:31;;;;;;;;;;;4.40;99.50;5.10;99480.00;;;;340704;28;83281;-92
2023/03/02 00:14:43;;;;;;;;;;;4.40;99.50;5.00;99486.00;;;;342736;28;92590;-92
2023/03/02 00:14:55;;;;;;;;;;;4.40;99.60;4.90;99477.00;;;;342053;28;83198;-91
2023/03/02 00:15:08;;;;;;;;;;;4.40;99.60;4.90;99486.00;;;;344325;28;89293;-92
2023/03/02 00:15:19;;;;;;;;;;;4.40;99.60;5.00;99480.00;;;;343106;28;83494;-92
2023/03/02 00:15:31;;;;;;;;;;;4.40;99.60;5.10;99478.00;;;;342553;28;90208;-92
2023/03/02 00:15:43;;;;;;;;;;;4.40;99.70;5.10;99477.00;;;;342051;28;83368;-92
2023/03/02 00:15:55;;;;;;;;;;;4.40;99.70;5.10;99487.00;;;;345607;28;89099;-92
2023/03/02 00:16:07;;;;;;;;;;;4.40;99.70;5.10;99485.00;;;;343253;28;82509;-92
2023/03/02 00:16:19;;;;;;;;;;;4.50;99.70;5.10;99489.00;;;;342737;28;88534;-92
2023/03/02 00:16:31;;;;;;;;;;;4.40;99.70;5.00;99490.00;;;;343230;28;82501;-92
2023/03/02 00:16:43;;;;;;;;;;;4.40;99.70;5.00;99483.00;;;;342844;28;90410;-93
2023/03/02 00:16:55;;;;;;;;;;;4.40;99.70;5.00;99484.00;;;;342020;28;84204;-93
2023/03/02 00:17:09;;;;;;;;;;;4.40;99.70;4.90;99482.00;;;;342888;28;90994;-92
2023/03/02 00:17:26;;;;;;;;;;;4.40;99.70;5.00;99486.00;;;;344481;28;83290;-92
2023/03/02 00:17:38;;;;;;;;;;;4.40;99.70;5.00;99481.00;;;;344001;28;88160;-92
2023/03/02 00:17:50;;;;;;;;;;;4.40;99.60;4.90;99475.00;;;;343168;28;83362;-92
2023/03/02 00:18:02;;;;;;;;;;;4.40;99.60;4.90;99485.00;;;;341640;28;88977;-92
2023/03/02 00:18:14;;;;;;;;;;;4.40;99.60;4.90;99483.00;;;;344506;28;83582;-92
2023/03/02 00:18:25;;;;;;;;;;;4.40;99.60;4.90;99477.00;;;;344350;28;87936;-92
2023/03/02 00:18:37;;;;;;;;;;;4.40;99.60;5.00;99488.00;;;;344601;28;82554;-92
2023/03/02 00:18:49;;;;;;;;;;;4.40;99.70;5.00;99486.00;;;;342509;28;92728;-92
2023/03/02 00:19:01;;;;;;;;;;;4.40;99.70;5.10;99483.00;;;;340834;28;83277;-92
2023/03/02 00:19:12;;;;;;;;;;;4.40;99.70;5.10;99486.00;;;;343094;28;88066;-91
2023/03/02 00:19:24;;;;;;;;;;;4.40;99.70;5.10;99482.00;;;;343379;28;82674;-91
2023/03/02 00:19:36;;;;;;;;;;;4.40;99.70;4.90;99483.00;;;;342902;28;89560;-92
2023/03/02 00:19:48;;;;;;;;;;;4.40;99.60;5.00;99479.00;;;;341827;28;82468;-92
2023/03/02 00:20:08;;;;;;;;;;;4.40;99.60;5.00;99482.00;;;;341394;28;86920;-92
2023/03/02 00:20:21;;;;;;;;;;;4.40;99.60;5.00;99487.00;;;;344551;28;82530;-92
2023/03/02 00:20:34;;;;;;;;;;;4.40;99.70;5.10;99486.00;;;;342612;28;88662;-92
2023/03/02 00:20:46;;;;;;;;;;;4.40;99.70;5.10;99492.00;;;;343111;28;83506;-92
2023/03/02 00:20:58;;;;;;;;;;;4.40;99.70;5.10;99484.00;;;;344085;28;90440;-92
2023/03/02 00:21:10;;;;;;;;;;;4.40;99.70;5.10;99492.00;;;;343398;28;83385;-92
2023/03/02 00:21:23;;;;;;;;;;;4.40;99.70;5.00;99487.00;;;;342766;28;91021;-92
2023/03/02 00:21:35;;;;;;;;;;;4.40;99.70;5.10;99490.00;;;;344460;28;83548;-92
2023/03/02 00:21:47;;;;;;;;;;;4.40;99.70;5.10;99484.00;;;;343007;28;87515;-92
2023/03/02 00:21:58;;;;;;;;;;;4.40;99.60;5.10;99474.00;;;;346171;28;83291;-92
2023/03/02 00:22:10;;;;;;;;;;;4.40;99.60;5.00;99483.00;;;;342747;28;89367;-92
2023/03/02 00:22:22;;;;;;;;;;;4.40;99.60;5.00;99481.00;;;;344318;28;83466;-92
2023/03/02 00:22:34;;;;;;;;;;;4.40;99.50;5.00;99484.00;;;;344177;28;89280;-92
2023/03/02 00:22:47;;;;;;;;;;;4.40;99.50;5.00;99482.00;;;;343408;28;83393;-91
2023/03/02 00:22:58;;;;;;;;;;;4.40;99.50;5.00;99480.00;;;;342924;28;89882;-92
2023/03/02 00:23:10;;;;;;;;;;;4.40;99.60;5.00;99479.00;;;;341988;28;83417;-91
2023/03/02 00:23:22;;;;;;;;;;;4.40;99.60;5.00;99472.00;;;;344118;28;89193;-92
2023/03/02 00:23:34;;;;;;;;;;;4.40;99.60;5.10;99476.00;;;;345850;28;83546;-92
2023/03/02 00:23:46;;;;;;;;;;;4.40;99.60;5.00;99480.00;;;;341349;28;90615;-93
2023/03/02 00:23:58;;;;;;;;;;;4.40;99.60;5.10;99474.00;;;;340862;28;82145;-92
2023/03/02 00:24:09;;;;;;;;;;;4.40;99.70;5.00;99482.00;;;;341606;28;88393;-92
2023/03/02 00:24:21;;;;;;;;;;;4.40;99.60;5.10;99483.00;;;;344506;28;82583;-92
2023/03/02 00:24:33;;;;;;;;;;;4.40;99.60;5.10;99476.00;;;;344059;28;90713;-92
2023/03/02 00:24:45;;;;;;;;;;;4.40;99.60;5.10;99492.00;;;;342849;28;82419;-91
2023/03/02 00:24:57;;;;;;;;;;;4.40;99.60;5.10;99477.00;;;;343828;28;92640;-92
2023/03/02 00:25:09;;;;;;;;;;;4.40;99.60;5.10;99479.00;;;;343170;28;83425;-92
2023/03/02 00:25:21;;;;;;;;;;;4.40;99.60;5.10;99486.00;;;;343008;28;88065;-92
2023/03/02 00:25:32;;;;;;;;;;;4.40;99.60;5.20;99489.00;;;;343354;28;82283;-92
2023/03/02 00:25:44;;;;;;;;;;;4.40;99.60;5.20;99483.00;;;;344077;28;88262;-92
2023/03/02 00:25:56;;;;;;;;;;;4.40;99.60;5.20;99478.00;;;;344811;28;82445;-92
2023/03/02 00:26:08;;;;;;;;;;;4.40;99.70;5.10;99484.00;;;;344109;28;91357;-92
2023/03/02 00:26:20;;;;;;;;;;;4.40;99.70;5.20;99476.00;;;;344523;28;82559;-92
2023/03/02 00:26:35;;;;;;;;;;;4.40;99.70;5.20;99484.00;;;;344348;28;88830;-94
2023/03/02 00:26:47;;;;;;;;;;;4.40;99.70;5.10;99489.00;;;;343097;28;83468;-92
2023/03/02 00:26:59;;;;;;;;;;;4.40;99.60;5.20;99486.00;;;;341277;28;90249;-91
2023/03/02 00:27:10;;;;;;;;;;;4.50;99.70;5.20;99484.00;;;;344869;28;82498;-93
2023/03/02 00:27:23;;;;;;;;;;;4.40;99.60;5.10;99483.00;;;;341373;28;90581;-92
2023/03/02 00:27:35;;;;;;;;;;;4.50;99.60;5.10;99476.00;;;;341943;28;83461;-92
2023/03/02 00:27:47;;;;;;;;;;;4.40;99.60;5.10;99480.00;;;;341538;28;88324;-92
2023/03/02 00:27:59;;;;;;;;;;;4.50;99.60;5.10;99486.00;;;;341990;28;83275;-92
2023/03/02 00:28:10;;;;;;;;;;;4.40;99.60;5.10;99478.00;;;;340175;28;90190;-92
2023/03/02 00:28:22;;;;;;;;;;;4.50;99.60;5.00;99481.00;;;;343357;28;83456;-92
2023/03/02 00:28:34;;;;;;;;;;;4.40;99.60;5.00;99485.00;;;;344119;28;89137;-92
2023/03/02 00:28:46;;;;;;;;;;;4.40;99.60;5.00;99485.00;;;;343216;28;83418;-92
2023/03/02 00:28:58;;;;;;;;;;;4.40;99.60;5.00;99483.00;;;;345617;28;89766;-93
2023/03/02 00:29:10;;;;;;;;;;;4.40;99.60;5.00;99481.00;;;;344522;28;82557;-91
2023/03/02 00:29:21;;;;;;;;;;;4.40;99.60;5.00;99474.00;;;;344360;28;88996;-92
2023/03/02 00:29:33;;;;;;;;;;;4.40;99.60;5.00;99486.00;;;;345816;28;83605;-92
2023/03/02 00:29:45;;;;;;;;;;;4.40;99.60;5.00;99492.00;;;;342740;28;90369;-92
2023/03/02 00:29:57;;;;;;;;;;;4.40;99.60;5.10;99476.00;;;;341943;28;83583;-92
2023/03/02 00:30:09;;;;;;;;;;;4.40;99.70;5.10;99476.00;;;;344292;28;89427;-91
2023/03/02 00:30:21;;;;;;;;;;;4.40;99.80;4.90;99482.00;;;;343210;28;83476;-92
2023/03/02 00:30:33;;;;;;;;;;;4.40;99.70;4.90;99484.00;;;;342400;28;87230;-92
2023/03/02 00:30:45;;;;;;;;;;;4.40;99.70;4.90;99489.00;;;;344315;28;83487;-92
2023/03/02 00:30:57;;;;;;;;;;;4.40;99.70;4.90;99476.00;;;;345391;28;90949;-92
2023/03/02 00:31:09;;;;;;;;;;;4.40;99.70;4.80;99484.00;;;;344502;28;83268;-92
2023/03/02 00:31:21;;;;;;;;;;;4.40;99.70;4.80;99484.00;;;;343784;28;88378;-92
2023/03/02 00:31:33;;;;;;;;;;;4.40;99.70;4.90;99485.00;;;;341990;28;83338;-92
2023/03/02 00:31:45;;;;;;;;;;;4.40;99.70;4.90;99489.00;;;;341417;28;89697;-92
2023/03/02 00:31:56;;;;;;;;;;;4.40;99.80;5.00;99484.00;;;;341986;28;83385;-93
2023/03/02 00:32:10;;;;;;;;;;;4.40;99.80;5.10;99486.00;;;;345478;28;89332;-92
2023/03/02 00:32:22;;;;;;;;;;;4.40;99.80;5.00;99482.00;;;;344680;28;82552;-93
2023/03/02 00:32:34;;;;;;;;;;;4.40;99.80;4.90;99491.00;;;;344161;28;89391;-92
2023/03/02 00:32:46;;;;;;;;;;;4.40;99.70;4.90;99480.00;;;;344541;28;83516;-92
2023/03/02 00:32:58;;;;;;;;;;;4.40;99.70;4.90;99473.00;;;;342387;28;91913;-93
2023/03/02 00:33:10;;;;;;;;;;;4.40;99.70;4.90;99478.00;;;;343006;28;82542;-92
2023/03/02 00:33:22;;;;;;;;;;;4.40;99.70;5.00;99485.00;;;;344185;28;87697;-92
2023/03/02 00:33:34;;;;;;;;;;;4.40;99.80;5.10;99480.00;;;;345741;28;83495;-91
2023/03/02 00:33:45;;;;;;;;;;;4.40;99.80;5.10;99488.00;;;;342987;28;88336;-92
2023/03/02 00:33:57;;;;;;;;;;;4.40;99.80;5.00;99482.00;;;;342083;28;82498;-92
2023/03/02 00:34:09;;;;;;;;;;;4.40;99.80;4.80;99482.00;;;;342920;28;89573;-91
2023/03/02 00:34:21;;;;;;;;;;;4.40;99.70;4.90;99479.00;;;;345969;28;82591;-92
2023/03/02 00:34:33;;;;;;;;;;;4.40;99.70;4.90;99489.00;;;;345352;28;90338;-91
2023/03/02 00:34:45;;;;;;;;;;;4.40;99.70;4.90;99483.00;;;;343285;28;82499;-92
2023/03/02 00:34:57;;;;;;;;;;;4.40;99.70;5.00;99479.00;;;;342664;28;90339;-92
2023/03/02 00:35:10;;;;;;;;;;;4.40;99.80;5.00;99483.00;;;;342058;28;83379;-92
2023/03/02 00:35:21;;;;;;;;;;;4.40;99.80;4.90;99480.00;;;;341589;28;88353;-92
2023/03/02 00:35:39;;;;;;;;;;;4.40;99.70;5.00;99482.00;;;;341987;28;83545;-92
2023/03/02 00:35:51;;;;;;;;;;;4.40;99.80;5.00;99483.00;;;;341587;28;89438;-92
2023/03/02 00:36:04;;;;;;;;;;;4.40;99.80;5.00;99487.00;;;;341746;28;83487;-92
2023/03/02 00:36:16;;;;;;;;;;;4.40;99.80;5.00;99486.00;;;;341584;28;88617;-92
2023/03/02 00:36:28;;;;;;;;;;;4.40;99.80;4.90;99485.00;;;;344711;28;83349;-92
2023/03/02 00:36:40;;;;;;;;;;;4.40;99.70;5.00;99482.00;;;;345570;28;91458;-91
2023/03/02 00:36:52;;;;;;;;;;;4.40;99.80;5.00;99489.00;;;;342008;28;82488;-91
2023/03/02 00:37:04;;;;;;;;;;;4.40;99.80;5.00;99486.00;;;;342677;28;90099;-92
2023/03/02 00:37:16;;;;;;;;;;;4.40;99.80;4.90;99477.00;;;;341954;28;82538;-91
2023/03/02 00:37:27;;;;;;;;;;;4.40;99.70;4.80;99481.00;;;;342667;28;88785;-92
2023/03/02 00:37:39;;;;;;;;;;;4.40;99.70;4.80;99484.00;;;;341840;28;83439;-92
2023/03/02 00:37:51;;;;;;;;;;;4.30;99.70;4.90;99482.00;;;;342995;28;88716;-92
2023/03/02 00:38:03;;;;;;;;;;;4.30;99.70;4.90;99482.00;;;;344389;28;83483;-90
2023/03/02 00:38:15;;;;;;;;;;;4.30;99.80;4.90;99478.00;;;;342839;28;89842;-92
2023/03/02 00:38:27;;;;;;;;;;;4.30;99.80;4.90;99477.00;;;;343437;28;82394;-92
2023/03/02 00:38:39;;;;;;;;;;;4.30;99.80;4.90;99485.00;;;;344168;28;89240;-93
2023/03/02 00:38:51;;;;;;;;;;;4.30;99.80;5.00;99489.00;;;;344739;28;83331;-92
2023/03/02 00:39:03;;;;;;;;;;;4.30;99.90;5.00;99488.00;;;;345260;28;91847;-92
2023/03/02 00:39:18;;;;;;;;;;;4.30;99.90;5.00;99480.00;;;;344355;28;82454;-91
2023/03/02 00:39:31;;;;;;;;;;;4.30;99.90;5.00;99489.00;;;;345390;28;90576;-92
2023/03/02 00:39:43;;;;;;;;;;;4.30;99.90;4.90;99479.00;;;;344762;28;83209;-93
2023/03/02 00:39:55;;;;;;;;;;;4.30;99.80;4.90;99478.00;;;;341428;28;89459;-92
2023/03/02 00:40:10;;;;;;;;;;;4.30;99.80;4.90;99481.00;;;;343106;28;83287;-91
2023/03/02 00:40:22;;;;;;;;;;;4.30;99.80;4.90;99485.00;;;;344417;28;88183;-91
2023/03/02 00:40:34;;;;;;;;;;;4.30;99.80;4.80;99470.00;;;;343379;28;82497;-92
2023/03/02 00:40:49;;;;;;;;;;;4.30;99.80;4.70;99480.00;;;;345717;28;88726;-92
2023/03/02 00:41:01;;;;;;;;;;;4.30;99.80;4.80;99473.00;;;;345779;28;82610;-92
2023/03/02 00:41:13;;;;;;;;;;;4.30;99.80;4.90;99483.00;;;;343916;28;90958;-92
2023/03/02 00:41:25;;;;;;;;;;;4.30;99.90;4.90;99481.00;;;;341986;28;83267;-90
2023/03/02 00:41:37;;;;;;;;;;;4.30;99.90;4.90;99479.00;;;;342924;28;89362;-92
2023/03/02 00:41:49;;;;;;;;;;;4.30;99.90;5.00;99469.00;;;;346168;28;83187;-92
2023/03/02 00:42:01;;;;;;;;;;;4.30;99.90;5.00;99472.00;;;;345347;28;88645;-92
2023/03/02 00:42:12;;;;;;;;;;;4.30;99.90;5.00;99475.00;;;;347407;28;83529;-92
2023/03/02 00:42:24;;;;;;;;;;;4.30;99.90;5.00;99474.00;;;;344345;28;89206;-92
2023/03/02 00:42:36;;;;;;;;;;;4.30;99.90;5.00;99471.00;;;;343334;28;83477;-92
2023/03/02 00:42:48;;;;;;;;;;;4.30;99.90;5.00;99470.00;;;;345427;28;90620;-92
2023/03/02 00:43:00;;;;;;;;;;;4.30;99.90;4.90;99468.00;;;;344466;28;83249;-92
2023/03/02 00:43:12;;;;;;;;;;;4.30;99.80;4.80;99470.00;;;;343934;28;91490;-92
2023/03/02 00:43:26;;;;;;;;;;;4.30;99.80;4.90;99468.00;;;;343394;28;83246;-92
2023/03/02 00:43:38;;;;;;;;;;;4.30;99.80;4.90;99474.00;;;;341674;28;90770;-92
2023/03/02 00:43:50;;;;;;;;;;;4.30;99.90;4.70;99473.00;;;;343387;28;83391;-92
2023/03/02 00:44:02;;;;;;;;;;;4.30;99.80;4.70;99469.00;;;;341511;28;89097;-92
2023/03/02 00:44:16;;;;;;;;;;;4.30;99.80;4.80;99474.00;;;;344763;28;82291;-92
2023/03/02 00:44:28;;;;;;;;;;;4.30;99.80;4.90;99471.00;;;;344209;28;89535;-92
2023/03/02 00:44:40;;;;;;;;;;;4.30;99.90;4.90;99468.00;;;;345976;28;82570;-92
2023/03/02 00:44:52;;;;;;;;;;;4.30;99.90;5.00;99473.00;;;;345364;28;91663;-93
2023/03/02 00:45:05;;;;;;;;;;;4.30;99.90;5.00;99474.00;;;;344633;28;82525;-92
2023/03/02 00:45:17;;;;;;;;;;;4.30;99.90;4.90;99473.00;;;;342768;28;89976;-92
2023/03/02 00:45:29;;;;;;;;;;;4.30;99.90;5.00;99465.00;;;;342930;28;83482;-91
2023/03/02 00:45:40;;;;;;;;;;;4.30;99.90;4.90;99468.00;;;;343049;28;89073;-92
2023/03/02 00:45:53;;;;;;;;;;;4.30;99.90;4.90;99472.00;;;;343145;28;82368;-92
2023/03/02 00:46:17;;;;;;;;;;;4.30;99.90;4.90;99469.00;;;;343978;28;89640;-92
2023/03/02 00:46:28;;;;;;;;;;;4.30;99.90;5.00;99471.00;;;;343236;28;83449;-92
2023/03/02 00:46:41;;;;;;;;;;;4.30;99.90;4.90;99464.00;;;;343002;28;87719;-92
2023/03/02 00:46:53;;;;;;;;;;;4.30;99.90;5.00;99472.00;;;;343075;28;84280;-91
2023/03/02 00:47:04;;;;;;;;;;;4.30;99.90;5.00;99471.00;;;;342605;28;91435;-93
2023/03/02 00:47:16;;;;;;;;;;;4.30;99.90;5.00;99471.00;;;;343039;28;82602;-94
2023/03/02 00:47:28;;;;;;;;;;;4.30;99.90;5.00;99481.00;;;;342763;28;90328;-92
2023/03/02 00:47:40;;;;;;;;;;;4.30;99.90;5.10;99467.00;;;;343074;28;82566;-91
2023/03/02 00:47:53;;;;;;;;;;;4.30;99.90;5.10;99469.00;;;;342934;28;89026;-92
2023/03/02 00:48:05;;;;;;;;;;;4.30;99.90;5.00;99478.00;;;;342817;28;83544;-90
2023/03/02 00:48:17;;;;;;;;;;;4.30;99.90;5.10;99464.00;;;;342285;28;91873;-92
2023/03/02 00:48:29;;;;;;;;;;;4.30;99.90;5.00;99474.00;;;;342696;28;83553;-92
2023/03/02 00:48:41;;;;;;;;;;;4.40;99.90;5.00;99465.00;;;;344184;28;90582;-92
2023/03/02 00:48:52;;;;;;;;;;;4.40;99.90;5.00;99476.00;;;;343206;28;83515;-92
2023/03/02 00:49:04;;;;;;;;;;;4.40;99.90;5.00;99474.00;;;;344048;28;90462;-92
2023/03/02 00:49:16;;;;;;;;;;;4.40;99.90;5.10;99472.00;;;;343415;28;82634;-91
2023/03/02 00:49:28;;;;;;;;;;;4.40;99.90;5.10;99471.00;;;;343911;28;90883;-92
2023/03/02 00:49:40;;;;;;;;;;;4.30;99.90;5.10;99472.00;;;;344591;28;82576;-92
2023/03/02 00:49:52;;;;;;;;;;;4.40;99.90;5.10;99468.00;;;;345657;28;89250;-93
2023/03/02 00:50:05;;;;;;;;;;;4.40;99.90;5.10;99470.00;;;;344588;28;82602;-92
2023/03/02 00:50:17;;;;;;;;;;;4.40;99.90;5.10;99471.00;;;;341592;28;89388;-92
2023/03/02 00:50:28;;;;;;;;;;;4.40;99.90;5.10;99475.00;;;;342061;28;82372;-92
2023/03/02 00:50:40;;;;;;;;;;;4.40;99.90;5.00;99472.00;;;;343936;28;90753;-92
2023/03/02 00:50:52;;;;;;;;;;;4.40;99.90;4.90;99472.00;;;;346137;28;82534;-92
2023/03/02 00:51:04;;;;;;;;;;;4.40;99.90;5.00;99469.00;;;;346813;28;91069;-92
2023/03/02 00:51:16;;;;;;;;;;;4.40;99.90;4.80;99469.00;;;;346153;28;83408;-92
2023/03/02 00:51:28;;;;;;;;;;;4.40;99.80;4.70;99469.00;;;;342856;28;90225;-91
2023/03/02 00:51:40;;;;;;;;;;;4.40;99.80;4.80;99466.00;;;;341986;28;82497;-92
2023/03/02 00:51:52;;;;;;;;;;;4.40;99.80;4.90;99471.00;;;;342658;28;90129;-91
2023/03/02 00:52:04;;;;;;;;;;;4.40;99.80;4.90;99478.00;;;;343084;28;83496;-92
2023/03/02 00:52:16;;;;;;;;;;;4.30;99.90;5.00;99473.00;;;;341494;28;89410;-92
2023/03/02 00:52:29;;;;;;;;;;;4.40;99.90;5.00;99475.00;;;;343062;28;82546;-91
2023/03/02 00:52:40;;;;;;;;;;;4.30;99.90;4.90;99476.00;;;;341497;28;90131;-92
2023/03/02 00:52:52;;;;;;;;;;;4.40;99.90;4.80;99467.00;;;;342974;28;83464;-93
2023/03/02 00:53:04;;;;;;;;;;;4.30;99.90;4.80;99464.00;;;;344069;28;91453;-92
2023/03/02 00:53:16;;;;;;;;;;;4.40;99.80;4.90;99459.00;;;;343317;28;83412;-93
2023/03/02 00:53:28;;;;;;;;;;;4.40;99.80;4.90;99465.00;;;;342596;28;92608;-92
2023/03/02 00:53:40;;;;;;;;;;;4.30;99.80;4.90;99470.00;;;;343188;28;82543;-92
2023/03/02 00:53:52;;;;;;;;;;;4.40;99.80;4.90;99464.00;;;;343738;28;91926;-92
2023/03/02 00:54:04;;;;;;;;;;;4.30;99.80;4.90;99457.00;;;;345892;28;83628;-90
2023/03/02 00:54:16;;;;;;;;;;;4.30;99.90;4.90;99466.00;;;;344069;28;88997;-92
2023/03/02 00:54:28;;;;;;;;;;;4.30;99.90;4.80;99471.00;;;;344794;28;83366;-92
2023/03/02 00:54:40;;;;;;;;;;;4.30;99.90;4.90;99462.00;;;;344023;28;90215;-92
2023/03/02 00:54:52;;;;;;;;;;;4.30;99.80;4.90;99469.00;;;;341916;28;82441;-92
2023/03/02 00:55:04;;;;;;;;;;;4.30;99.80;4.90;99461.00;;;;342879;28;86824;-92
2023/03/02 00:55:16;;;;;;;;;;;4.30;99.80;4.70;99470.00;;;;343152;28;83442;-92
2023/03/02 00:55:28;;;;;;;;;;;4.30;99.70;4.70;99459.00;;;;342913;28;89007;-91
2023/03/02 00:55:40;;;;;;;;;;;4.30;99.60;4.60;99469.00;;;;342103;28;83295;-91
2023/03/02 00:55:53;;;;;;;;;;;4.30;99.70;4.70;99467.00;;;;342990;28;88274;-92
2023/03/02 00:56:05;;;;;;;;;;;4.30;99.70;4.80;99465.00;;;;344569;28;82620;-90
2023/03/02 00:56:17;;;;;;;;;;;4.30;99.70;4.80;99468.00;;;;344199;28;89511;-92
2023/03/02 00:56:29;;;;;;;;;;;4.30;99.80;4.90;99453.00;;;;343478;28;83199;-92
2023/03/02 00:56:41;;;;;;;;;;;4.30;99.80;4.90;99464.00;;;;342699;28;90894;-93
2023/03/02 00:56:53;;;;;;;;;;;4.30;99.80;4.90;99465.00;;;;343017;28;83717;-92
2023/03/02 00:57:05;;;;;;;;;;;4.30;99.80;4.90;99466.00;;;;344383;28;89065;-92
2023/03/02 00:57:17;;;;;;;;;;;4.30;99.80;4.90;99454.00;;;;344426;28;83334;-91
2023/03/02 00:57:29;;;;;;;;;;;4.30;99.80;4.80;99458.00;;;;344103;28;89744;-92
2023/03/02 00:57:40;;;;;;;;;;;4.30;99.80;4.80;99459.00;;;;344494;28;83594;-92
2023/03/02 00:57:55;;;;;;;;;;;4.30;99.80;4.90;99460.00;;;;342601;28;92043;-92
2023/03/02 00:58:07;;;;;;;;;;;4.30;99.90;4.90;99460.00;;;;343298;28;82501;-92
2023/03/02 00:58:20;;;;;;;;;;;4.30;99.80;4.80;99460.00;;;;343961;28;90447;-92
2023/03/02 00:58:32;;;;;;;;;;;4.30;99.80;4.90;99468.00;;;;343444;28;83192;-92
2023/03/02 00:58:44;;;;;;;;;;;4.30;99.80;4.80;99461.00;;;;341481;28;88700;-91
2023/03/02 00:58:56;;;;;;;;;;;4.30;99.80;4.90;99465.00;;;;341871;28;83368;-92
2023/03/02 00:59:17;;;;;;;;;;;4.30;99.80;4.90;99467.00;;;;344272;28;88625;-92
2023/03/02 00:59:28;;;;;;;;;;;4.30;99.80;4.90;99468.00;;;;344675;28;82340;-92
2023/03/02 00:59:40;;;;;;;;;;;4.30;99.80;4.90;99467.00;;;;342707;28;91808;-92
2023/03/02 00:59:52;;;;;;;;;;;4.30;99.80;4.90;99469.00;;;;342852;28;83551;-92
2023/03/02 01:00:05;;;;;;;;;;;4.30;99.70;4.90;99462.00;;;;341340;28;90353;-93
2023/03/02 01:00:17;;;;;;;;;;;4.30;99.70;4.90;99464.00;;;;341529;28;82449;-92
2023/03/02 01:00:30;;;;;;;;;;;4.30;99.70;4.90;99468.00;;;;341570;28;88317;-92
2023/03/02 01:00:42;;;;;;;;;;;4.30;99.70;4.90;99469.00;;;;343227;28;83490;-91
2023/03/02 01:00:54;;;;;;;;;;;4.30;99.70;4.80;99468.00;;;;342885;28;88360;-92
2023/03/02 01:01:07;;;;;;;;;;;4.30;99.60;4.80;99464.00;;;;343375;28;83183;-91
2023/03/02 01:01:19;;;;;;;;;;;4.30;99.60;4.90;99467.00;;;;341512;28;88180;-92
2023/03/02 01:01:31;;;;;;;;;;;4.30;99.60;4.90;99459.00;;;;343263;28;83577;-92
2023/03/02 01:01:43;;;;;;;;;;;4.30;99.70;4.90;99462.00;;;;343832;28;89241;-91
2023/03/02 01:01:56;;;;;;;;;;;4.30;99.70;5.00;99461.00;;;;341793;28;83380;-91
2023/03/02 01:02:09;;;;;;;;;;;4.30;99.60;5.00;99468.00;;;;342941;28;89106;-92
2023/03/02 01:02:21;;;;;;;;;;;4.30;99.60;5.00;99468.00;;;;345811;28;83533;-92
2023/03/02 01:02:32;;;;;;;;;;;4.30;99.60;4.90;99461.00;;;;344102;28;89306;-92
2023/03/02 01:02:45;;;;;;;;;;;4.30;99.60;4.90;99464.00;;;;340698;28;83423;-92
2023/03/02 01:02:57;;;;;;;;;;;4.30;99.50;4.80;99464.00;;;;345821;28;90555;-91